Time;durP1;ratioP1;P1;durP2;ratioP2;P2;SDS_P1;SDS_P2;PMS_P1;PMS_P2;Temp;Humidity;BMP_temperature;BMP_pressure;BME280_temperature;BME280_humidity;BME280_pressure;Samples;Min_cycle;Max_cycle;Signal;HPM_P1;HPM_P2
2022/10/03 00:07:36;;;;;;;0.20;0.10;;;18.80;99.90;;;;;;21261221;28;20865;-68
2022/10/03 00:17:49;;;;;;;0.20;0.00;;;18.40;99.90;;;;;;21260591;28;20213;-68
2022/10/03 00:28:07;;;;;;;0.20;0.00;;;18.20;99.90;;;;;;21259423;28;20219;-69
2022/10/03 00:38:24;;;;;;;0.20;0.00;;;18.10;99.90;;;;;;21258893;28;20187;-70
2022/10/03 00:49:07;;;;;;;0.20;0.00;;;18.10;99.90;;;;;;21257791;28;20226;-69
2022/10/03 00:59:26;;;;;;;0.20;0.00;;;18.20;99.90;;;;;;21256803;28;20187;-70
2022/10/03 01:09:47;;;;;;;0.20;0.00;;;18.20;99.90;;;;;;21255893;28;20253;-70
2022/10/03 01:20:10;;;;;;;0.20;0.00;;;18.30;99.90;;;;;;21255397;28;20183;-70
2022/10/03 01:30:25;;;;;;;0.20;0.03;;;18.40;99.90;;;;;;21235848;28;20227;-70
2022/10/03 01:40:34;;;;;;;0.20;0.00;;;18.30;99.90;;;;;;21236358;28;20225;-68
2022/10/03 01:50:50;;;;;;;0.20;0.00;;;18.30;99.90;;;;;;21252744;28;20219;-70
2022/10/03 02:00:59;;;;;;;0.20;0.10;;;18.00;99.90;;;;;;21234020;28;20240;-70
2022/10/03 02:11:07;;;;;;;0.20;0.00;;;17.80;99.90;;;;;;21251881;28;20274;-70
2022/10/03 02:21:17;;;;;;;0.20;0.00;;;17.80;99.90;;;;;;21251563;28;20211;-71
2022/10/03 02:31:54;;;;;;;0.20;0.00;;;17.80;99.90;;;;;;21233781;28;20226;-70
2022/10/03 02:42:23;;;;;;;0.20;0.00;;;17.80;99.90;;;;;;21250079;28;20215;-70
2022/10/03 02:52:55;;;;;;;0.20;0.00;;;17.90;99.90;;;;;;21220675;28;20232;-69
2022/10/03 03:03:26;;;;;;;0.20;0.00;;;17.90;99.90;;;;;;21244795;28;20235;-68
2022/10/03 03:14:11;;;;;;;0.20;0.00;;;18.10;99.90;;;;;;21265756;28;20231;-69
2022/10/03 03:24:45;;;;;;;0.20;0.10;;;18.20;99.90;;;;;;21264653;28;20245;-68
2022/10/03 03:34:59;;;;;;;0.20;0.10;;;18.40;99.90;;;;;;21258772;28;20236;-68
2022/10/03 03:45:28;;;;;;;0.20;0.00;;;18.70;99.90;;;;;;21245276;28;20249;-68
2022/10/03 03:56:01;;;;;;;0.20;0.00;;;18.90;99.90;;;;;;21243485;28;20192;-68
2022/10/03 04:06:35;;;;;;;0.20;0.10;;;18.80;99.90;;;;;;21261144;28;20227;-68
2022/10/03 04:27:29;;;;;;;0.20;0.10;;;18.60;99.90;;;;;;21259506;28;20237;-69
2022/10/03 04:37:43;;;;;;;0.20;0.00;;;18.50;99.90;;;;;;21240882;28;20209;-69
2022/10/03 04:47:52;;;;;;;0.20;0.00;;;18.40;99.90;;;;;;21257009;28;20240;-69
2022/10/03 04:58:05;;;;;;;0.20;0.00;;;18.30;99.90;;;;;;21256109;28;20197;-68
2022/10/03 05:08:19;;;;;;;0.20;0.00;;;18.60;99.90;;;;;;21246574;28;20223;-68
2022/10/03 05:18:33;;;;;;;0.20;0.10;;;18.60;99.90;;;;;;21254091;28;20191;-69
2022/10/03 05:28:44;;;;;;;0.20;0.10;;;18.50;99.90;;;;;;21252439;28;20219;-70
2022/10/03 05:39:26;;;;;;;0.20;0.10;;;18.60;99.90;;;;;;21251523;28;20195;-69
2022/10/03 05:49:57;;;;;;;0.20;0.10;;;18.60;99.90;;;;;;21229454;28;20289;-70
2022/10/03 06:00:15;;;;;;;0.20;0.00;;;18.60;99.90;;;;;;21245102;28;20187;-72
2022/10/03 06:10:35;;;;;;;0.20;0.00;;;18.50;99.90;;;;;;21246901;28;20231;-70
2022/10/03 06:21:22;;;;;;;0.20;0.00;;;18.20;99.90;;;;;;21249235;28;20199;-68
2022/10/03 06:32:05;;;;;;;0.20;0.00;;;17.90;99.90;;;;;;21241791;28;20248;-70
2022/10/03 06:42:28;;;;;;;0.20;0.10;;;18.00;99.90;;;;;;21249179;28;20227;-70
2022/10/03 06:53:09;;;;;;;0.20;0.00;;;18.30;99.90;;;;;;21247866;28;20184;-71
2022/10/03 07:03:41;;;;;;;0.20;0.10;;;18.80;99.90;;;;;;21246841;28;20280;-70
2022/10/03 07:14:13;;;;;;;0.20;0.10;;;19.50;99.90;;;;;;21246161;28;20277;-70
2022/10/03 07:24:40;;;;;;;0.20;0.00;;;20.00;99.90;;;;;;21246040;28;20227;-69
2022/10/03 07:35:21;;;;;;;0.20;0.00;;;20.80;99.90;;;;;;21239190;28;20205;-72
2022/10/03 07:45:38;;;;;;;0.20;0.00;;;21.40;99.90;;;;;;21261012;28;20234;-69
2022/10/03 07:56:02;;;;;;;0.20;0.00;;;22.00;99.90;;;;;;21260348;28;20217;-67
2022/10/03 08:06:25;;;;;;;0.20;0.00;;;22.40;99.90;;;;;;21251905;28;20234;-67
2022/10/03 08:17:11;;;;;;;0.20;0.00;;;22.80;99.90;;;;;;21157587;28;20188;-66
2022/10/03 08:27:38;;;;;;;0.20;0.00;;;22.90;99.90;;;;;;21071073;28;20269;-68
2022/10/03 08:38:18;;;;;;;0.20;0.00;;;22.40;99.90;;;;;;21154606;28;20210;-66
2022/10/03 08:48:59;;;;;;;0.20;0.00;;;23.50;99.90;;;;;;21140479;28;20249;-67
2022/10/03 08:59:41;;;;;;;0.20;0.00;;;23.40;99.90;;;;;;21150429;28;20187;-68
2022/10/03 09:10:24;;;;;;;0.20;0.00;;;23.10;99.90;;;;;;21173758;28;20234;-69
2022/10/03 09:21:12;;;;;;;0.20;0.00;;;22.90;99.90;;;;;;21251862;28;20195;-68
2022/10/03 09:31:48;;;;;;;0.20;0.00;;;23.10;99.90;;;;;;21244846;28;20480;-67
2022/10/03 09:42:32;;;;;;;0.20;0.00;;;23.20;99.90;;;;;;21251275;28;20188;-69
2022/10/03 09:53:03;;;;;;;0.20;0.00;;;23.20;99.90;;;;;;21209908;28;20226;-67
2022/10/03 10:03:53;;;;;;;0.20;0.00;;;23.50;99.90;;;;;;21184775;28;20220;-67
2022/10/03 10:14:37;;;;;;;0.20;0.00;;;23.40;99.90;;;;;;21165508;28;20230;-68
2022/10/03 10:25:25;;;;;;;0.20;0.00;;;23.40;99.90;;;;;;21164776;28;20252;-69
2022/10/03 10:35:51;;;;;;;0.20;0.00;;;23.90;99.90;;;;;;21094654;28;20207;-67
2022/10/03 10:46:21;;;;;;;0.20;0.10;;;24.90;99.90;;;;;;21163109;28;20220;-68
2022/10/03 10:57:06;;;;;;;0.20;0.00;;;25.20;99.90;;;;;;21163725;28;20188;-69
2022/10/03 11:07:44;;;;;;;0.20;0.00;;;25.80;99.90;;;;;;21153042;28;20236;-68
2022/10/03 11:18:16;;;;;;;0.20;0.00;;;25.60;99.90;;;;;;21148354;28;20196;-69
2022/10/03 11:29:11;;;;;;;0.20;0.10;;;26.40;99.90;;;;;;21176750;28;20232;-68
2022/10/03 11:39:25;;;;;;;0.20;0.10;;;27.00;99.90;;;;;;21170095;28;20199;-67
2022/10/03 11:49:53;;;;;;;0.20;0.00;;;27.40;99.90;;;;;;21173045;28;20218;-67
2022/10/03 12:00:05;;;;;;;0.20;0.00;;;27.60;99.90;;;;;;21168600;28;20196;-69
2022/10/03 12:10:17;;;;;;;0.20;0.00;;;27.80;99.90;;;;;;21172328;28;20310;-68
2022/10/03 12:20:30;;;;;;;0.20;0.08;;;27.50;99.90;;;;;;21171753;28;20254;-67
2022/10/03 12:30:46;;;;;;;0.20;0.00;;;27.10;99.90;;;;;;21172089;28;20215;-68
2022/10/03 12:41:01;;;;;;;0.20;0.00;;;28.00;99.90;;;;;;21161845;28;20192;-68
2022/10/03 12:51:15;;;;;;;0.20;0.00;;;28.10;99.90;;;;;;21169141;28;20241;-67
2022/10/03 13:01:27;;;;;;;0.20;0.00;;;28.70;99.90;;;;;;21151883;28;20252;-68
2022/10/03 13:11:39;;;;;;;0.20;0.00;;;29.20;99.90;;;;;;21169366;28;20234;-66
2022/10/03 13:22:07;;;;;;;0.20;0.00;;;28.90;99.90;;;;;;21168022;28;20184;-67
2022/10/03 13:32:20;;;;;;;0.20;0.00;;;28.90;99.90;;;;;;21148953;28;20216;-68
2022/10/03 13:42:39;;;;;;;0.20;0.00;;;29.80;99.90;;;;;;21149373;28;20195;-68
2022/10/03 13:52:47;;;;;;;0.20;0.00;;;29.50;99.90;;;;;;21165978;28;20223;-67
2022/10/03 14:03:18;;;;;;;0.20;0.00;;;29.70;99.90;;;;;;21164833;28;20216;-68
2022/10/03 14:13:30;;;;;;;0.20;0.00;;;30.30;99.90;;;;;;21164669;28;20216;-67
2022/10/03 14:23:42;;;;;;;0.20;0.00;;;30.00;99.90;;;;;;21163437;28;20223;-69
2022/10/03 14:33:55;;;;;;;0.20;0.00;;;30.60;99.90;;;;;;21161238;28;20282;-68
2022/10/03 14:44:04;;;;;;;0.20;0.00;;;26.70;99.90;;;;;;21172116;28;20235;-68
2022/10/03 14:54:20;;;;;;;0.20;0.00;;;26.10;99.90;;;;;;21178630;28;20222;-69
2022/10/03 15:04:30;;;;;;;0.20;0.00;;;26.80;99.90;;;;;;21178830;28;20324;-68
2022/10/03 15:14:37;;;;;;;0.20;0.00;;;26.50;99.90;;;;;;21175196;28;20203;-69
2022/10/03 15:24:42;;;;;;;0.20;0.00;;;26.60;99.90;;;;;;21174224;28;20223;-69
2022/10/03 15:34:49;;;;;;;0.20;0.00;;;26.40;99.90;;;;;;21175525;28;20192;-68
2022/10/03 15:44:56;;;;;;;0.20;0.00;;;27.10;99.90;;;;;;21175696;28;20241;-67
2022/10/03 15:55:04;;;;;;;0.20;0.00;;;26.90;99.90;;;;;;21172842;28;20196;-68
2022/10/03 16:05:21;;;;;;;0.20;0.10;;;26.70;99.90;;;;;;21168545;28;20287;-67
2022/10/03 16:15:36;;;;;;;0.20;0.00;;;25.40;99.90;;;;;;21170397;28;20218;-66
2022/10/03 16:25:47;;;;;;;0.20;0.00;;;24.70;99.90;;;;;;21152110;28;20226;-68
2022/10/03 16:35:54;;;;;;;0.20;0.00;;;24.50;99.90;;;;;;21169566;28;20203;-68
2022/10/03 16:46:04;;;;;;;0.20;0.00;;;24.30;99.90;;;;;;21152089;28;20242;-68
2022/10/03 16:56:13;;;;;;;0.20;0.00;;;24.00;99.90;;;;;;21134164;28;20292;-67
2022/10/03 17:06:23;;;;;;;0.20;0.00;;;23.70;99.90;;;;;;21165567;28;20220;-68
2022/10/03 17:16:36;;;;;;;0.20;0.00;;;23.50;99.90;;;;;;21148089;28;20188;-69
2022/10/03 17:26:44;;;;;;;0.20;0.00;;;23.10;99.90;;;;;;21165193;28;20224;-69
2022/10/03 17:37:06;;;;;;;0.20;0.00;;;23.00;99.90;;;;;;21166227;28;20218;-68
2022/10/03 17:47:18;;;;;;;0.20;0.00;;;22.80;99.90;;;;;;21165356;28;20223;-70
2022/10/03 17:57:24;;;;;;;0.20;0.00;;;22.70;99.90;;;;;;21211866;28;20202;-68
2022/10/03 18:07:31;;;;;;;0.20;0.00;;;22.70;99.90;;;;;;21244477;28;20223;-70
2022/10/03 18:17:49;;;;;;;0.20;0.00;;;22.30;99.90;;;;;;21241164;28;20187;-70
2022/10/03 18:28:14;;;;;;;0.20;0.00;;;21.90;99.90;;;;;;21243525;28;20237;-69
2022/10/03 18:38:21;;;;;;;0.20;0.00;;;21.30;99.90;;;;;;21225709;28;20180;-69
2022/10/03 18:48:34;;;;;;;0.20;0.00;;;21.30;99.90;;;;;;21243124;28;20227;-72
2022/10/03 18:58:42;;;;;;;0.20;0.00;;;20.90;99.90;;;;;;21247028;28;20217;-68
2022/10/03 19:08:52;;;;;;;0.20;0.00;;;20.70;99.90;;;;;;21244821;28;20227;-70
2022/10/03 19:19:07;;;;;;;0.20;0.00;;;20.60;99.90;;;;;;21245783;28;20188;-70
2022/10/03 19:29:15;;;;;;;0.20;0.00;;;20.60;99.90;;;;;;21242928;28;20231;-70
2022/10/03 19:39:21;;;;;;;0.20;0.10;;;20.50;99.90;;;;;;21254500;28;20184;-70
2022/10/03 19:49:36;;;;;;;0.20;0.00;;;20.40;99.90;;;;;;21250196;28;20218;-70
2022/10/03 19:59:45;;;;;;;0.20;0.00;;;20.20;99.90;;;;;;21233582;28;20195;-69
2022/10/03 20:10:00;;;;;;;0.20;0.10;;;20.20;99.90;;;;;;21250111;28;20223;-70
2022/10/03 20:20:09;;;;;;;0.20;0.10;;;20.00;99.90;;;;;;21254009;28;20195;-69
2022/10/03 20:30:25;;;;;;;0.20;0.10;;;19.90;99.90;;;;;;21169253;28;20211;-69
2022/10/03 20:40:34;;;;;;;0.20;0.00;;;19.80;99.90;;;;;;21226889;28;20195;-68
2022/10/03 20:50:44;;;;;;;0.20;0.00;;;19.70;99.90;;;;;;21252199;28;20233;-69
2022/10/03 21:00:52;;;;;;;0.20;0.10;;;19.60;99.90;;;;;;21232773;28;20188;-69
2022/10/03 21:11:00;;;;;;;0.20;0.10;;;19.50;99.90;;;;;;21228305;28;20218;-70
2022/10/03 21:21:12;;;;;;;0.20;0.10;;;19.40;99.90;;;;;;21249897;28;20191;-69
2022/10/03 21:31:27;;;;;;;0.20;0.10;;;19.30;99.90;;;;;;21250358;28;20241;-70
2022/10/03 21:41:42;;;;;;;0.20;0.10;;;19.20;99.90;;;;;;21250509;28;20191;-69
2022/10/03 21:52:15;;;;;;;0.20;0.00;;;19.10;99.90;;;;;;21249818;28;20222;-68
2022/10/03 22:02:28;;;;;;;0.20;0.10;;;19.00;99.90;;;;;;21228347;28;20203;-68
2022/10/03 22:12:45;;;;;;;0.20;0.10;;;18.90;99.90;;;;;;21247943;28;20262;-68
2022/10/03 22:23:17;;;;;;;0.20;0.10;;;18.90;99.90;;;;;;21247080;28;20191;-69
2022/10/03 22:33:32;;;;;;;0.20;0.10;;;18.80;99.90;;;;;;21244475;28;20222;-68
2022/10/03 22:43:37;;;;;;;0.20;0.00;;;18.80;99.90;;;;;;21244766;28;20187;-69
2022/10/03 22:53:47;;;;;;;0.20;0.10;;;18.70;99.90;;;;;;21229000;28;20225;-68
2022/10/03 23:03:51;;;;;;;0.20;0.00;;;18.80;99.90;;;;;;21255584;28;20207;-68
2022/10/03 23:14:01;;;;;;;0.20;0.00;;;18.70;99.90;;;;;;21260576;28;20223;-68
2022/10/03 23:24:11;;;;;;;0.20;0.00;;;18.50;99.90;;;;;;21264740;28;20203;-67
2022/10/03 23:34:47;;;;;;;0.20;0.00;;;18.50;99.90;;;;;;21263512;28;20214;-68
2022/10/03 23:44:54;;;;;;;0.20;0.10;;;18.50;99.90;;;;;;21245084;28;20196;-68
2022/10/03 23:55:05;;;;;;;0.20;0.00;;;18.40;99.90;;;;;;21244572;28;20195;-68
